sensor_id;sensor_type;location;lat;lon;timestamp;P1;durP1;ratioP1;P2;durP2;ratioP2
23498;SDS011;11926;48.120;11.562;2023-05-02T00:01:59;6.80;;;4.53;;
23498;SDS011;11926;48.120;11.562;2023-05-02T00:04:46;7.13;;;4.60;;
23498;SDS011;11926;48.120;11.562;2023-05-02T00:07:33;6.50;;;4.60;;
23498;SDS011;11926;48.120;11.562;2023-05-02T00:10:23;7.55;;;4.47;;
23498;SDS011;11926;48.120;11.562;2023-05-02T00:13:10;6.18;;;4.65;;
23498;SDS011;11926;48.120;11.562;2023-05-02T00:15:56;7.28;;;4.70;;
23498;SDS011;11926;48.120;11.562;2023-05-02T00:18:44;6.72;;;4.68;;
23498;SDS011;11926;48.120;11.562;2023-05-02T00:21:31;6.30;;;4.55;;
23498;SDS011;11926;48.120;11.562;2023-05-02T00:24:18;6.20;;;4.60;;
23498;SDS011;11926;48.120;11.562;2023-05-02T00:27:06;7.30;;;4.35;;
23498;SDS011;11926;48.120;11.562;2023-05-02T00:29:53;5.68;;;4.10;;
23498;SDS011;11926;48.120;11.562;2023-05-02T00:32:41;8.48;;;4.68;;
23498;SDS011;11926;48.120;11.562;2023-05-02T00:35:28;5.90;;;4.07;;
23498;SDS011;11926;48.120;11.562;2023-05-02T00:38:19;6.72;;;4.70;;
23498;SDS011;11926;48.120;11.562;2023-05-02T00:41:06;8.43;;;4.75;;
23498;SDS011;11926;48.120;11.562;2023-05-02T00:43:54;6.53;;;4.85;;
23498;SDS011;11926;48.120;11.562;2023-05-02T00:46:41;5.65;;;4.18;;
23498;SDS011;11926;48.120;11.562;2023-05-02T00:49:29;6.85;;;4.43;;
23498;SDS011;11926;48.120;11.562;2023-05-02T00:52:16;7.18;;;4.55;;
23498;SDS011;11926;48.120;11.562;2023-05-02T00:55:05;8.02;;;5.20;;
23498;SDS011;11926;48.120;11.562;2023-05-02T00:57:52;7.05;;;4.78;;
23498;SDS011;11926;48.120;11.562;2023-05-02T01:00:57;8.60;;;5.65;;
23498;SDS011;11926;48.120;11.562;2023-05-02T01:03:54;6.68;;;4.25;;
23498;SDS011;11926;48.120;11.562;2023-05-02T01:06:54;7.53;;;4.68;;
23498;SDS011;11926;48.120;11.562;2023-05-02T01:10:04;6.13;;;4.57;;
23498;SDS011;11926;48.120;11.562;2023-05-02T01:12:57;7.30;;;4.45;;
23498;SDS011;11926;48.120;11.562;2023-05-02T01:15:50;7.80;;;5.07;;
23498;SDS011;11926;48.120;11.562;2023-05-02T01:18:40;7.60;;;4.65;;
23498;SDS011;11926;48.120;11.562;2023-05-02T01:21:28;8.48;;;4.60;;
23498;SDS011;11926;48.120;11.562;2023-05-02T01:24:18;7.25;;;4.72;;
23498;SDS011;11926;48.120;11.562;2023-05-02T01:27:12;8.30;;;5.38;;
23498;SDS011;11926;48.120;11.562;2023-05-02T01:30:10;8.43;;;5.68;;
23498;SDS011;11926;48.120;11.562;2023-05-02T01:33:00;8.35;;;4.85;;
23498;SDS011;11926;48.120;11.562;2023-05-02T01:35:50;7.85;;;4.70;;
23498;SDS011;11926;48.120;11.562;2023-05-02T01:38:40;8.95;;;5.03;;
23498;SDS011;11926;48.120;11.562;2023-05-02T01:41:30;6.97;;;4.72;;
23498;SDS011;11926;48.120;11.562;2023-05-02T01:44:19;7.88;;;5.70;;
23498;SDS011;11926;48.120;11.562;2023-05-02T01:47:10;8.05;;;4.90;;
23498;SDS011;11926;48.120;11.562;2023-05-02T01:49:58;8.73;;;4.93;;
23498;SDS011;11926;48.120;11.562;2023-05-02T01:52:48;8.88;;;5.80;;
23498;SDS011;11926;48.120;11.562;2023-05-02T01:55:37;8.68;;;6.22;;
23498;SDS011;11926;48.120;11.562;2023-05-02T01:58:25;11.68;;;6.20;;
23498;SDS011;11926;48.120;11.562;2023-05-02T02:01:16;9.13;;;5.43;;
23498;SDS011;11926;48.120;11.562;2023-05-02T02:04:07;8.60;;;5.78;;
23498;SDS011;11926;48.120;11.562;2023-05-02T02:06:57;6.20;;;4.80;;
23498;SDS011;11926;48.120;11.562;2023-05-02T02:09:48;7.13;;;5.20;;
23498;SDS011;11926;48.120;11.562;2023-05-02T02:12:37;9.75;;;5.00;;
23498;SDS011;11926;48.120;11.562;2023-05-02T02:15:27;9.07;;;5.95;;
23498;SDS011;11926;48.120;11.562;2023-05-02T02:18:18;9.88;;;6.00;;
23498;SDS011;11926;48.120;11.562;2023-05-02T02:21:11;6.90;;;5.10;;
23498;SDS011;11926;48.120;11.562;2023-05-02T02:24:02;7.50;;;4.93;;
23498;SDS011;11926;48.120;11.562;2023-05-02T02:26:51;7.30;;;5.65;;
23498;SDS011;11926;48.120;11.562;2023-05-02T02:29:39;8.70;;;5.28;;
23498;SDS011;11926;48.120;11.562;2023-05-02T02:32:26;9.32;;;5.22;;
23498;SDS011;11926;48.120;11.562;2023-05-02T02:35:13;9.65;;;5.45;;
23498;SDS011;11926;48.120;11.562;2023-05-02T02:38:05;8.48;;;4.68;;
23498;SDS011;11926;48.120;11.562;2023-05-02T02:40:58;6.50;;;4.75;;
23498;SDS011;11926;48.120;11.562;2023-05-02T02:43:54;7.55;;;4.70;;
23498;SDS011;11926;48.120;11.562;2023-05-02T02:46:47;9.77;;;5.57;;
23498;SDS011;11926;48.120;11.562;2023-05-02T02:49:45;8.75;;;5.80;;
23498;SDS011;11926;48.120;11.562;2023-05-02T02:52:36;7.68;;;5.28;;
23498;SDS011;11926;48.120;11.562;2023-05-02T02:55:37;8.27;;;5.20;;
23498;SDS011;11926;48.120;11.562;2023-05-02T02:58:30;6.40;;;4.53;;
23498;SDS011;11926;48.120;11.562;2023-05-02T03:01:31;6.57;;;4.47;;
23498;SDS011;11926;48.120;11.562;2023-05-02T03:04:22;6.20;;;4.25;;
23498;SDS011;11926;48.120;11.562;2023-05-02T03:07:12;6.18;;;4.65;;
23498;SDS011;11926;48.120;11.562;2023-05-02T03:10:01;6.10;;;4.47;;
23498;SDS011;11926;48.120;11.562;2023-05-02T03:12:53;6.00;;;4.78;;
23498;SDS011;11926;48.120;11.562;2023-05-02T03:15:51;5.45;;;4.20;;
23498;SDS011;11926;48.120;11.562;2023-05-02T03:19:06;6.45;;;4.18;;
23498;SDS011;11926;48.120;11.562;2023-05-02T03:21:54;6.95;;;4.10;;
23498;SDS011;11926;48.120;11.562;2023-05-02T03:24:41;6.68;;;4.45;;
23498;SDS011;11926;48.120;11.562;2023-05-02T03:27:31;6.25;;;4.70;;
23498;SDS011;11926;48.120;11.562;2023-05-02T03:30:22;6.43;;;4.78;;
23498;SDS011;11926;48.120;11.562;2023-05-02T03:33:09;6.68;;;4.55;;
23498;SDS011;11926;48.120;11.562;2023-05-02T03:36:00;6.32;;;4.40;;
23498;SDS011;11926;48.120;11.562;2023-05-02T03:38:47;7.35;;;4.60;;
23498;SDS011;11926;48.120;11.562;2023-05-02T03:41:35;7.43;;;4.85;;
23498;SDS011;11926;48.120;11.562;2023-05-02T03:44:26;8.65;;;4.93;;
23498;SDS011;11926;48.120;11.562;2023-05-02T03:47:16;9.73;;;4.80;;
23498;SDS011;11926;48.120;11.562;2023-05-02T03:50:03;6.13;;;4.57;;
23498;SDS011;11926;48.120;11.562;2023-05-02T03:52:51;8.43;;;5.18;;
23498;SDS011;11926;48.120;11.562;2023-05-02T03:55:48;7.47;;;5.07;;
23498;SDS011;11926;48.120;11.562;2023-05-02T03:58:44;7.22;;;4.97;;
23498;SDS011;11926;48.120;11.562;2023-05-02T04:01:35;7.75;;;5.22;;
23498;SDS011;11926;48.120;11.562;2023-05-02T04:04:24;8.32;;;5.80;;
23498;SDS011;11926;48.120;11.562;2023-05-02T04:07:12;8.55;;;5.60;;
23498;SDS011;11926;48.120;11.562;2023-05-02T04:10:10;7.15;;;5.32;;
23498;SDS011;11926;48.120;11.562;2023-05-02T04:13:08;8.88;;;5.85;;
23498;SDS011;11926;48.120;11.562;2023-05-02T04:15:59;9.90;;;5.70;;
23498;SDS011;11926;48.120;11.562;2023-05-02T04:18:50;10.02;;;5.68;;
23498;SDS011;11926;48.120;11.562;2023-05-02T04:21:39;8.27;;;5.63;;
23498;SDS011;11926;48.120;11.562;2023-05-02T04:24:26;7.57;;;5.38;;
23498;SDS011;11926;48.120;11.562;2023-05-02T04:27:15;6.10;;;4.70;;
23498;SDS011;11926;48.120;11.562;2023-05-02T04:30:03;12.57;;;6.60;;
23498;SDS011;11926;48.120;11.562;2023-05-02T04:32:51;7.93;;;5.50;;
23498;SDS011;11926;48.120;11.562;2023-05-02T04:35:40;6.63;;;4.82;;
23498;SDS011;11926;48.120;11.562;2023-05-02T04:38:32;7.70;;;5.60;;
23498;SDS011;11926;48.120;11.562;2023-05-02T04:41:19;9.57;;;5.90;;
23498;SDS011;11926;48.120;11.562;2023-05-02T04:44:14;8.43;;;5.72;;
23498;SDS011;11926;48.120;11.562;2023-05-02T04:47:02;8.18;;;6.05;;
23498;SDS011;11926;48.120;11.562;2023-05-02T04:49:50;9.88;;;5.60;;
23498;SDS011;11926;48.120;11.562;2023-05-02T04:52:37;9.07;;;6.50;;
23498;SDS011;11926;48.120;11.562;2023-05-02T04:55:25;10.80;;;5.72;;
23498;SDS011;11926;48.120;11.562;2023-05-02T04:58:12;12.05;;;6.32;;
23498;SDS011;11926;48.120;11.562;2023-05-02T05:01:03;9.48;;;5.95;;
23498;SDS011;11926;48.120;11.562;2023-05-02T05:03:51;9.77;;;6.60;;
23498;SDS011;11926;48.120;11.562;2023-05-02T05:06:39;9.65;;;5.80;;
23498;SDS011;11926;48.120;11.562;2023-05-02T05:09:26;8.25;;;6.10;;
23498;SDS011;11926;48.120;11.562;2023-05-02T05:12:14;8.63;;;6.00;;
23498;SDS011;11926;48.120;11.562;2023-05-02T05:15:01;7.05;;;5.03;;
23498;SDS011;11926;48.120;11.562;2023-05-02T05:17:49;7.72;;;4.97;;
23498;SDS011;11926;48.120;11.562;2023-05-02T05:20:36;9.55;;;5.20;;
23498;SDS011;11926;48.120;11.562;2023-05-02T05:23:24;7.80;;;5.20;;
23498;SDS011;11926;48.120;11.562;2023-05-02T05:26:13;7.82;;;4.63;;
23498;SDS011;11926;48.120;11.562;2023-05-02T05:29:06;8.43;;;5.13;;
23498;SDS011;11926;48.120;11.562;2023-05-02T05:31:58;7.93;;;5.28;;
23498;SDS011;11926;48.120;11.562;2023-05-02T05:34:50;11.57;;;5.07;;
23498;SDS011;11926;48.120;11.562;2023-05-02T05:37:39;10.73;;;5.93;;
23498;SDS011;11926;48.120;11.562;2023-05-02T05:40:31;7.05;;;4.90;;
23498;SDS011;11926;48.120;11.562;2023-05-02T05:43:18;5.63;;;4.40;;
23498;SDS011;11926;48.120;11.562;2023-05-02T05:46:07;7.72;;;5.18;;
23498;SDS011;11926;48.120;11.562;2023-05-02T05:48:55;8.77;;;4.57;;
23498;SDS011;11926;48.120;11.562;2023-05-02T05:51:45;10.52;;;5.10;;
23498;SDS011;11926;48.120;11.562;2023-05-02T05:54:33;8.40;;;5.50;;
23498;SDS011;11926;48.120;11.562;2023-05-02T05:57:21;7.03;;;5.20;;
23498;SDS011;11926;48.120;11.562;2023-05-02T06:00:08;8.10;;;6.00;;
23498;SDS011;11926;48.120;11.562;2023-05-02T06:03:09;9.07;;;5.72;;
23498;SDS011;11926;48.120;11.562;2023-05-02T06:05:57;6.82;;;5.15;;
23498;SDS011;11926;48.120;11.562;2023-05-02T06:08:45;9.18;;;5.55;;
23498;SDS011;11926;48.120;11.562;2023-05-02T06:11:32;8.02;;;6.10;;
23498;SDS011;11926;48.120;11.562;2023-05-02T06:14:19;10.20;;;5.53;;
23498;SDS011;11926;48.120;11.562;2023-05-02T06:17:09;5.78;;;4.63;;
23498;SDS011;11926;48.120;11.562;2023-05-02T06:19:57;7.60;;;5.15;;
23498;SDS011;11926;48.120;11.562;2023-05-02T06:22:45;9.38;;;5.82;;
23498;SDS011;11926;48.120;11.562;2023-05-02T06:25:36;10.25;;;6.15;;
23498;SDS011;11926;48.120;11.562;2023-05-02T06:28:24;8.02;;;5.32;;
23498;SDS011;11926;48.120;11.562;2023-05-02T06:31:11;16.15;;;7.47;;
23498;SDS011;11926;48.120;11.562;2023-05-02T06:34:00;7.43;;;5.60;;
23498;SDS011;11926;48.120;11.562;2023-05-02T06:36:49;7.82;;;6.20;;
23498;SDS011;11926;48.120;11.562;2023-05-02T06:39:41;7.38;;;4.90;;
23498;SDS011;11926;48.120;11.562;2023-05-02T06:42:28;8.10;;;5.88;;
23498;SDS011;11926;48.120;11.562;2023-05-02T06:45:16;8.70;;;5.15;;
23498;SDS011;11926;48.120;11.562;2023-05-02T06:48:02;7.72;;;5.63;;
23498;SDS011;11926;48.120;11.562;2023-05-02T06:50:50;8.23;;;5.63;;
23498;SDS011;11926;48.120;11.562;2023-05-02T06:53:39;8.00;;;5.28;;
23498;SDS011;11926;48.120;11.562;2023-05-02T06:56:26;8.65;;;5.80;;
23498;SDS011;11926;48.120;11.562;2023-05-02T06:59:13;9.18;;;5.22;;
23498;SDS011;11926;48.120;11.562;2023-05-02T07:02:01;10.02;;;5.25;;
23498;SDS011;11926;48.120;11.562;2023-05-02T07:04:49;7.78;;;5.60;;
23498;SDS011;11926;48.120;11.562;2023-05-02T07:07:37;10.82;;;5.28;;
23498;SDS011;11926;48.120;11.562;2023-05-02T07:10:25;7.30;;;5.40;;
23498;SDS011;11926;48.120;11.562;2023-05-02T07:13:13;9.52;;;5.80;;
23498;SDS011;11926;48.120;11.562;2023-05-02T07:16:00;7.95;;;5.85;;
23498;SDS011;11926;48.120;11.562;2023-05-02T07:18:48;9.52;;;6.28;;
23498;SDS011;11926;48.120;11.562;2023-05-02T07:21:35;10.68;;;6.65;;
23498;SDS011;11926;48.120;11.562;2023-05-02T07:24:22;7.03;;;5.28;;
23498;SDS011;11926;48.120;11.562;2023-05-02T07:27:12;9.65;;;6.10;;
23498;SDS011;11926;48.120;11.562;2023-05-02T07:30:00;6.78;;;5.38;;
23498;SDS011;11926;48.120;11.562;2023-05-02T07:32:47;12.57;;;6.20;;
23498;SDS011;11926;48.120;11.562;2023-05-02T07:35:34;8.15;;;5.65;;
23498;SDS011;11926;48.120;11.562;2023-05-02T07:38:22;7.57;;;5.47;;
23498;SDS011;11926;48.120;11.562;2023-05-02T07:41:09;10.30;;;6.10;;
23498;SDS011;11926;48.120;11.562;2023-05-02T07:43:58;7.75;;;5.78;;
23498;SDS011;11926;48.120;11.562;2023-05-02T07:46:45;9.93;;;6.53;;
23498;SDS011;11926;48.120;11.562;2023-05-02T07:49:32;8.60;;;5.68;;
23498;SDS011;11926;48.120;11.562;2023-05-02T07:52:21;7.90;;;5.97;;
23498;SDS011;11926;48.120;11.562;2023-05-02T07:55:08;7.80;;;6.00;;
23498;SDS011;11926;48.120;11.562;2023-05-02T07:57:56;7.55;;;6.32;;
23498;SDS011;11926;48.120;11.562;2023-05-02T08:00:44;7.65;;;6.32;;
23498;SDS011;11926;48.120;11.562;2023-05-02T08:03:31;7.32;;;5.68;;
23498;SDS011;11926;48.120;11.562;2023-05-02T08:06:19;8.55;;;5.90;;
23498;SDS011;11926;48.120;11.562;2023-05-02T08:09:07;8.13;;;6.05;;
23498;SDS011;11926;48.120;11.562;2023-05-02T08:11:54;7.05;;;6.13;;
23498;SDS011;11926;48.120;11.562;2023-05-02T08:14:42;10.30;;;5.50;;
23498;SDS011;11926;48.120;11.562;2023-05-02T08:17:30;8.73;;;6.50;;
23498;SDS011;11926;48.120;11.562;2023-05-02T08:20:18;8.32;;;6.10;;
23498;SDS011;11926;48.120;11.562;2023-05-02T08:23:06;9.15;;;6.55;;
23498;SDS011;11926;48.120;11.562;2023-05-02T08:25:53;7.53;;;5.63;;
23498;SDS011;11926;48.120;11.562;2023-05-02T08:28:41;7.57;;;5.75;;
23498;SDS011;11926;48.120;11.562;2023-05-02T08:31:28;8.63;;;6.00;;
23498;SDS011;11926;48.120;11.562;2023-05-02T08:34:17;7.20;;;5.40;;
23498;SDS011;11926;48.120;11.562;2023-05-02T08:37:07;7.10;;;5.57;;
23498;SDS011;11926;48.120;11.562;2023-05-02T08:39:54;7.70;;;5.60;;
23498;SDS011;11926;48.120;11.562;2023-05-02T08:42:41;8.15;;;5.90;;
23498;SDS011;11926;48.120;11.562;2023-05-02T08:45:30;8.70;;;5.72;;
23498;SDS011;11926;48.120;11.562;2023-05-02T08:48:23;6.60;;;5.60;;
23498;SDS011;11926;48.120;11.562;2023-05-02T08:51:12;7.22;;;5.75;;
23498;SDS011;11926;48.120;11.562;2023-05-02T08:54:01;6.43;;;5.13;;
23498;SDS011;11926;48.120;11.562;2023-05-02T08:56:48;7.93;;;5.60;;
23498;SDS011;11926;48.120;11.562;2023-05-02T08:59:36;7.20;;;4.78;;
23498;SDS011;11926;48.120;11.562;2023-05-02T09:02:27;9.43;;;6.25;;
23498;SDS011;11926;48.120;11.562;2023-05-02T09:05:30;7.10;;;5.90;;
23498;SDS011;11926;48.120;11.562;2023-05-02T09:08:23;9.73;;;5.90;;
23498;SDS011;11926;48.120;11.562;2023-05-02T09:11:11;6.80;;;5.78;;
23498;SDS011;11926;48.120;11.562;2023-05-02T09:13:59;7.25;;;5.80;;
23498;SDS011;11926;48.120;11.562;2023-05-02T09:16:48;9.25;;;5.70;;
23498;SDS011;11926;48.120;11.562;2023-05-02T09:19:36;9.43;;;5.90;;
23498;SDS011;11926;48.120;11.562;2023-05-02T09:22:23;7.43;;;5.70;;
23498;SDS011;11926;48.120;11.562;2023-05-02T09:25:12;8.77;;;5.85;;
23498;SDS011;11926;48.120;11.562;2023-05-02T09:28:00;7.65;;;5.35;;
23498;SDS011;11926;48.120;11.562;2023-05-02T09:30:48;7.18;;;5.45;;
23498;SDS011;11926;48.120;11.562;2023-05-02T09:33:35;10.57;;;5.50;;
23498;SDS011;11926;48.120;11.562;2023-05-02T09:36:23;14.45;;;6.60;;
23498;SDS011;11926;48.120;11.562;2023-05-02T09:39:11;6.55;;;5.22;;
23498;SDS011;11926;48.120;11.562;2023-05-02T09:42:01;8.80;;;7.20;;
23498;SDS011;11926;48.120;11.562;2023-05-02T09:44:49;8.27;;;6.18;;
23498;SDS011;11926;48.120;11.562;2023-05-02T09:47:36;9.68;;;6.70;;
23498;SDS011;11926;48.120;11.562;2023-05-02T09:50:31;7.80;;;6.50;;
23498;SDS011;11926;48.120;11.562;2023-05-02T09:53:20;8.45;;;6.57;;
23498;SDS011;11926;48.120;11.562;2023-05-02T09:56:07;9.52;;;5.85;;
23498;SDS011;11926;48.120;11.562;2023-05-02T10:02:00;8.90;;;6.70;;
23498;SDS011;11926;48.120;11.562;2023-05-02T10:04:48;12.35;;;7.15;;
23498;SDS011;11926;48.120;11.562;2023-05-02T10:07:37;9.63;;;6.47;;
23498;SDS011;11926;48.120;11.562;2023-05-02T10:10:24;9.25;;;6.25;;
23498;SDS011;11926;48.120;11.562;2023-05-02T10:13:12;8.10;;;6.65;;
23498;SDS011;11926;48.120;11.562;2023-05-02T10:16:04;9.13;;;6.28;;
23498;SDS011;11926;48.120;11.562;2023-05-02T10:18:54;9.55;;;6.25;;
23498;SDS011;11926;48.120;11.562;2023-05-02T10:21:48;8.05;;;6.53;;
23498;SDS011;11926;48.120;11.562;2023-05-02T10:24:36;9.80;;;6.40;;
23498;SDS011;11926;48.120;11.562;2023-05-02T10:27:26;8.50;;;6.65;;
23498;SDS011;11926;48.120;11.562;2023-05-02T10:30:16;7.70;;;6.20;;
23498;SDS011;11926;48.120;11.562;2023-05-02T10:33:06;10.45;;;6.55;;
23498;SDS011;11926;48.120;11.562;2023-05-02T10:35:53;11.48;;;6.53;;
23498;SDS011;11926;48.120;11.562;2023-05-02T10:38:41;9.48;;;6.22;;
23498;SDS011;11926;48.120;11.562;2023-05-02T10:41:29;7.97;;;5.30;;
23498;SDS011;11926;48.120;11.562;2023-05-02T10:44:24;10.25;;;5.30;;
23498;SDS011;11926;48.120;11.562;2023-05-02T10:47:19;7.88;;;6.00;;
23498;SDS011;11926;48.120;11.562;2023-05-02T10:50:08;8.15;;;6.75;;
23498;SDS011;11926;48.120;11.562;2023-05-02T10:52:56;6.85;;;5.55;;
23498;SDS011;11926;48.120;11.562;2023-05-02T10:55:43;6.97;;;5.80;;
23498;SDS011;11926;48.120;11.562;2023-05-02T10:58:30;12.15;;;5.40;;
23498;SDS011;11926;48.120;11.562;2023-05-02T11:07:18;9.85;;;6.53;;
23498;SDS011;11926;48.120;11.562;2023-05-02T11:16:01;12.68;;;7.65;;
23498;SDS011;11926;48.120;11.562;2023-05-02T11:21:50;10.95;;;8.68;;
23498;SDS011;11926;48.120;11.562;2023-05-02T11:24:40;15.48;;;10.98;;
23498;SDS011;11926;48.120;11.562;2023-05-02T11:27:36;13.90;;;10.77;;
23498;SDS011;11926;48.120;11.562;2023-05-02T11:33:28;13.10;;;11.00;;
23498;SDS011;11926;48.120;11.562;2023-05-02T11:36:26;14.75;;;12.07;;
23498;SDS011;11926;48.120;11.562;2023-05-02T11:39:18;17.75;;;12.90;;
23498;SDS011;11926;48.120;11.562;2023-05-02T11:42:08;17.77;;;13.63;;
23498;SDS011;11926;48.120;11.562;2023-05-02T11:44:56;18.05;;;13.82;;
23498;SDS011;11926;48.120;11.562;2023-05-02T11:47:43;22.77;;;16.20;;
23498;SDS011;11926;48.120;11.562;2023-05-02T11:50:31;19.20;;;13.68;;
23498;SDS011;11926;48.120;11.562;2023-05-02T11:53:19;23.10;;;14.07;;
23498;SDS011;11926;48.120;11.562;2023-05-02T11:56:09;14.02;;;11.93;;
23498;SDS011;11926;48.120;11.562;2023-05-02T11:58:58;12.90;;;10.13;;
23498;SDS011;11926;48.120;11.562;2023-05-02T12:01:47;15.38;;;8.95;;
23498;SDS011;11926;48.120;11.562;2023-05-02T12:04:41;17.65;;;10.57;;
23498;SDS011;11926;48.120;11.562;2023-05-02T12:07:36;14.32;;;10.30;;
23498;SDS011;11926;48.120;11.562;2023-05-02T12:10:24;11.68;;;9.18;;
23498;SDS011;11926;48.120;11.562;2023-05-02T12:13:22;13.43;;;9.68;;
23498;SDS011;11926;48.120;11.562;2023-05-02T12:16:12;15.93;;;11.18;;
23498;SDS011;11926;48.120;11.562;2023-05-02T12:19:00;13.45;;;9.23;;
23498;SDS011;11926;48.120;11.562;2023-05-02T12:21:48;10.63;;;8.20;;
23498;SDS011;11926;48.120;11.562;2023-05-02T12:24:36;12.60;;;8.63;;
23498;SDS011;11926;48.120;11.562;2023-05-02T12:27:25;12.20;;;9.48;;
23498;SDS011;11926;48.120;11.562;2023-05-02T12:30:24;11.55;;;9.38;;
23498;SDS011;11926;48.120;11.562;2023-05-02T12:33:13;10.25;;;8.43;;
23498;SDS011;11926;48.120;11.562;2023-05-02T12:36:05;11.18;;;8.18;;
23498;SDS011;11926;48.120;11.562;2023-05-02T12:38:54;13.55;;;10.93;;
23498;SDS011;11926;48.120;11.562;2023-05-02T12:41:44;12.13;;;8.93;;
23498;SDS011;11926;48.120;11.562;2023-05-02T12:44:34;11.73;;;9.65;;
23498;SDS011;11926;48.120;11.562;2023-05-02T12:47:22;13.52;;;10.00;;
23498;SDS011;11926;48.120;11.562;2023-05-02T12:50:12;12.32;;;8.50;;
23498;SDS011;11926;48.120;11.562;2023-05-02T12:52:59;9.55;;;7.60;;
23498;SDS011;11926;48.120;11.562;2023-05-02T12:55:48;12.43;;;9.27;;
23498;SDS011;11926;48.120;11.562;2023-05-02T12:58:48;14.18;;;9.02;;
23498;SDS011;11926;48.120;11.562;2023-05-02T13:01:36;11.65;;;8.73;;
23498;SDS011;11926;48.120;11.562;2023-05-02T13:04:32;12.88;;;6.63;;
23498;SDS011;11926;48.120;11.562;2023-05-02T13:07:21;8.32;;;7.25;;
23498;SDS011;11926;48.120;11.562;2023-05-02T13:10:09;10.48;;;6.88;;
23498;SDS011;11926;48.120;11.562;2023-05-02T13:12:56;9.55;;;7.05;;
23498;SDS011;11926;48.120;11.562;2023-05-02T13:15:43;10.63;;;7.55;;
23498;SDS011;11926;48.120;11.562;2023-05-02T13:18:30;8.18;;;6.10;;
23498;SDS011;11926;48.120;11.562;2023-05-02T13:21:18;12.07;;;5.80;;
23498;SDS011;11926;48.120;11.562;2023-05-02T13:24:07;7.38;;;5.82;;
23498;SDS011;11926;48.120;11.562;2023-05-02T13:26:55;6.90;;;4.93;;
23498;SDS011;11926;48.120;11.562;2023-05-02T13:29:42;11.30;;;5.30;;
23498;SDS011;11926;48.120;11.562;2023-05-02T13:32:29;9.75;;;4.90;;
23498;SDS011;11926;48.120;11.562;2023-05-02T13:35:17;7.78;;;4.53;;
23498;SDS011;11926;48.120;11.562;2023-05-02T13:38:04;7.10;;;4.80;;
23498;SDS011;11926;48.120;11.562;2023-05-02T13:40:53;7.15;;;4.85;;
23498;SDS011;11926;48.120;11.562;2023-05-02T13:43:40;6.47;;;4.70;;
23498;SDS011;11926;48.120;11.562;2023-05-02T13:46:27;6.03;;;4.03;;
23498;SDS011;11926;48.120;11.562;2023-05-02T13:52:08;6.18;;;4.70;;
23498;SDS011;11926;48.120;11.562;2023-05-02T13:54:55;12.18;;;5.22;;
23498;SDS011;11926;48.120;11.562;2023-05-02T13:57:44;9.63;;;5.20;;
23498;SDS011;11926;48.120;11.562;2023-05-02T14:00:31;8.27;;;4.43;;
23498;SDS011;11926;48.120;11.562;2023-05-02T14:03:18;6.60;;;4.32;;
23498;SDS011;11926;48.120;11.562;2023-05-02T14:06:05;8.98;;;4.38;;
23498;SDS011;11926;48.120;11.562;2023-05-02T14:08:53;7.50;;;4.15;;
23498;SDS011;11926;48.120;11.562;2023-05-02T14:11:40;6.20;;;3.67;;
23498;SDS011;11926;48.120;11.562;2023-05-02T14:14:30;6.30;;;4.18;;
23498;SDS011;11926;48.120;11.562;2023-05-02T14:17:17;5.95;;;3.60;;
23498;SDS011;11926;48.120;11.562;2023-05-02T14:20:06;5.47;;;3.75;;
23498;SDS011;11926;48.120;11.562;2023-05-02T14:22:55;6.03;;;3.67;;
23498;SDS011;11926;48.120;11.562;2023-05-02T14:25:42;6.07;;;3.72;;
23498;SDS011;11926;48.120;11.562;2023-05-02T14:28:29;5.25;;;3.78;;
23498;SDS011;11926;48.120;11.562;2023-05-02T14:31:18;4.50;;;3.30;;
23498;SDS011;11926;48.120;11.562;2023-05-02T14:34:05;6.60;;;3.83;;
23498;SDS011;11926;48.120;11.562;2023-05-02T14:36:53;5.25;;;3.45;;
23498;SDS011;11926;48.120;11.562;2023-05-02T14:39:40;4.55;;;3.50;;
23498;SDS011;11926;48.120;11.562;2023-05-02T14:42:33;11.15;;;4.00;;
23498;SDS011;11926;48.120;11.562;2023-05-02T14:45:20;6.30;;;4.05;;
23498;SDS011;11926;48.120;11.562;2023-05-02T14:48:09;6.60;;;4.00;;
23498;SDS011;11926;48.120;11.562;2023-05-02T14:50:58;6.53;;;3.72;;
23498;SDS011;11926;48.120;11.562;2023-05-02T14:53:49;5.93;;;4.28;;
23498;SDS011;11926;48.120;11.562;2023-05-02T14:56:36;9.68;;;4.28;;
23498;SDS011;11926;48.120;11.562;2023-05-02T14:59:26;6.90;;;4.25;;
23498;SDS011;11926;48.120;11.562;2023-05-02T15:02:14;6.95;;;4.40;;
23498;SDS011;11926;48.120;11.562;2023-05-02T15:05:03;6.38;;;4.18;;
23498;SDS011;11926;48.120;11.562;2023-05-02T15:07:52;7.72;;;4.68;;
23498;SDS011;11926;48.120;11.562;2023-05-02T15:10:39;5.78;;;4.07;;
23498;SDS011;11926;48.120;11.562;2023-05-02T15:13:26;8.20;;;4.70;;
23498;SDS011;11926;48.120;11.562;2023-05-02T15:16:13;7.13;;;4.47;;
23498;SDS011;11926;48.120;11.562;2023-05-02T15:19:00;7.65;;;4.13;;
23498;SDS011;11926;48.120;11.562;2023-05-02T15:21:50;7.03;;;4.70;;
23498;SDS011;11926;48.120;11.562;2023-05-02T15:24:41;7.55;;;4.65;;
23498;SDS011;11926;48.120;11.562;2023-05-02T15:27:29;7.60;;;3.72;;
23498;SDS011;11926;48.120;11.562;2023-05-02T15:30:16;7.22;;;4.15;;
23498;SDS011;11926;48.120;11.562;2023-05-02T15:33:06;6.55;;;3.67;;
23498;SDS011;11926;48.120;11.562;2023-05-02T15:35:54;4.93;;;3.20;;
23498;SDS011;11926;48.120;11.562;2023-05-02T15:38:44;6.95;;;3.58;;
23498;SDS011;11926;48.120;11.562;2023-05-02T15:41:32;4.53;;;3.05;;
23498;SDS011;11926;48.120;11.562;2023-05-02T15:44:19;5.90;;;3.30;;
23498;SDS011;11926;48.120;11.562;2023-05-02T15:47:06;5.82;;;3.00;;
23498;SDS011;11926;48.120;11.562;2023-05-02T15:49:54;4.93;;;3.10;;
23498;SDS011;11926;48.120;11.562;2023-05-02T15:52:42;4.00;;;2.92;;
23498;SDS011;11926;48.120;11.562;2023-05-02T15:55:31;3.72;;;2.50;;
23498;SDS011;11926;48.120;11.562;2023-05-02T15:58:19;3.80;;;2.47;;
23498;SDS011;11926;48.120;11.562;2023-05-02T16:01:07;6.72;;;3.00;;
23498;SDS011;11926;48.120;11.562;2023-05-02T16:03:54;3.90;;;2.85;;
23498;SDS011;11926;48.120;11.562;2023-05-02T16:06:41;4.43;;;2.47;;
23498;SDS011;11926;48.120;11.562;2023-05-02T16:09:29;3.53;;;2.88;;
23498;SDS011;11926;48.120;11.562;2023-05-02T16:12:18;8.05;;;3.10;;
23498;SDS011;11926;48.120;11.562;2023-05-02T16:15:05;4.00;;;2.50;;
23498;SDS011;11926;48.120;11.562;2023-05-02T16:17:53;4.13;;;2.92;;
23498;SDS011;11926;48.120;11.562;2023-05-02T16:20:41;4.35;;;3.17;;
23498;SDS011;11926;48.120;11.562;2023-05-02T16:23:28;4.53;;;2.97;;
23498;SDS011;11926;48.120;11.562;2023-05-02T16:26:15;4.65;;;2.92;;
23498;SDS011;11926;48.120;11.562;2023-05-02T16:29:04;4.47;;;3.13;;
23498;SDS011;11926;48.120;11.562;2023-05-02T16:31:51;3.72;;;2.40;;
23498;SDS011;11926;48.120;11.562;2023-05-02T16:34:38;5.93;;;2.83;;
23498;SDS011;11926;48.120;11.562;2023-05-02T16:37:25;3.92;;;2.75;;
23498;SDS011;11926;48.120;11.562;2023-05-02T16:40:12;5.65;;;3.00;;
23498;SDS011;11926;48.120;11.562;2023-05-02T16:43:00;4.25;;;3.00;;
23498;SDS011;11926;48.120;11.562;2023-05-02T16:45:48;4.72;;;3.20;;
23498;SDS011;11926;48.120;11.562;2023-05-02T16:48:46;5.82;;;4.13;;
23498;SDS011;11926;48.120;11.562;2023-05-02T16:51:33;6.05;;;3.90;;
23498;SDS011;11926;48.120;11.562;2023-05-02T16:54:20;5.82;;;3.63;;
23498;SDS011;11926;48.120;11.562;2023-05-02T16:57:07;5.55;;;3.20;;
23498;SDS011;11926;48.120;11.562;2023-05-02T16:59:55;4.57;;;3.25;;
23498;SDS011;11926;48.120;11.562;2023-05-02T17:02:44;7.65;;;2.97;;
23498;SDS011;11926;48.120;11.562;2023-05-02T17:05:32;3.53;;;2.97;;